createdAt,value
2023-05-24T00:02:14.734Z,99.90
2023-05-24T00:05:02.590Z,99.90
2023-05-24T00:07:50.891Z,99.90
2023-05-24T00:10:38.175Z,99.90
2023-05-24T00:13:26.916Z,99.90
2023-05-24T00:16:14.424Z,99.90
2023-05-24T00:19:02.141Z,99.90
2023-05-24T00:21:50.666Z,99.90
2023-05-24T00:24:38.334Z,99.90
2023-05-24T00:27:26.261Z,99.90
2023-05-24T00:30:14.005Z,99.90
2023-05-24T00:33:01.504Z,99.90
2023-05-24T00:35:48.973Z,99.90
2023-05-24T00:38:36.197Z,99.90
2023-05-24T00:41:23.520Z,99.90
2023-05-24T00:44:11.559Z,99.90
2023-05-24T00:46:59.572Z,99.90
2023-05-24T00:49:47.198Z,99.90
2023-05-24T00:52:34.745Z,99.90
2023-05-24T00:55:22.600Z,99.90
2023-05-24T00:58:10.426Z,99.90
2023-05-24T01:01:02.580Z,99.90
2023-05-24T01:03:49.830Z,99.90
2023-05-24T01:06:42.003Z,99.90
2023-05-24T01:09:40.609Z,99.90
2023-05-24T01:12:39.854Z,99.90
2023-05-24T01:15:36.296Z,99.90
2023-05-24T01:18:31.393Z,99.90
2023-05-24T01:21:47.891Z,99.90
2023-05-24T01:24:44.375Z,99.90
2023-05-24T01:27:34.798Z,99.90
2023-05-24T01:30:22.007Z,99.90
2023-05-24T01:33:10.052Z,99.90
2023-05-24T01:35:58.856Z,99.90
2023-05-24T01:38:47.281Z,99.90
2023-05-24T01:41:37.618Z,99.90
2023-05-24T01:44:36.354Z,99.90
2023-05-24T01:47:38.657Z,99.90
2023-05-24T01:50:44.478Z,99.90
2023-05-24T01:53:37.550Z,99.90
2023-05-24T01:56:27.705Z,99.90
2023-05-24T01:59:15.760Z,99.90
2023-05-24T02:02:03.842Z,99.90
2023-05-24T02:04:51.454Z,99.90
2023-05-24T02:07:39.267Z,99.90
2023-05-24T02:10:26.940Z,99.90
2023-05-24T02:13:16.266Z,99.90
2023-05-24T02:16:05.163Z,99.90
2023-05-24T02:18:52.585Z,99.90
2023-05-24T02:21:41.168Z,99.90
2023-05-24T02:24:28.866Z,99.90
2023-05-24T02:27:16.174Z,99.90
2023-05-24T02:30:03.697Z,99.90
2023-05-24T02:32:51.023Z,99.90
2023-05-24T02:35:39.189Z,99.90
2023-05-24T02:38:26.559Z,99.90
2023-05-24T02:41:15.714Z,99.90
2023-05-24T02:44:03.081Z,99.90
2023-05-24T02:46:50.785Z,99.90
2023-05-24T02:49:38.130Z,99.90
2023-05-24T02:52:25.586Z,99.90
2023-05-24T02:55:13.236Z,99.90
2023-05-24T02:58:01.269Z,99.90
2023-05-24T03:00:48.904Z,99.90
2023-05-24T03:03:36.734Z,99.90
2023-05-24T03:06:24.024Z,99.90
2023-05-24T03:09:11.619Z,99.90
2023-05-24T03:11:58.924Z,99.90
2023-05-24T03:14:46.635Z,99.90
2023-05-24T03:17:34.516Z,99.90
2023-05-24T03:20:23.607Z,99.90
2023-05-24T03:23:11.772Z,99.90
2023-05-24T03:26:00.849Z,99.90
2023-05-24T03:29:07.685Z,99.90
2023-05-24T03:31:55.152Z,99.90
2023-05-24T03:34:42.274Z,99.90
2023-05-24T03:37:29.656Z,99.90
2023-05-24T03:40:17.156Z,99.90
2023-05-24T03:43:04.784Z,99.90
2023-05-24T03:45:52.410Z,99.90
2023-05-24T03:48:39.563Z,99.90
2023-05-24T03:51:28.648Z,99.90
2023-05-24T03:54:15.929Z,99.90
2023-05-24T03:57:03.794Z,99.90
2023-05-24T03:59:51.378Z,99.90
2023-05-24T04:02:39.390Z,99.90
2023-05-24T04:05:28.399Z,99.90
2023-05-24T04:08:16.341Z,99.90
2023-05-24T04:11:03.894Z,99.90
2023-05-24T04:13:51.436Z,99.90
2023-05-24T04:16:39.629Z,99.90
2023-05-24T04:19:27.440Z,99.90
2023-05-24T04:22:15.055Z,99.90
2023-05-24T04:25:03.628Z,99.90
2023-05-24T04:27:51.099Z,99.90
2023-05-24T04:30:39.122Z,99.90
2023-05-24T04:33:26.798Z,99.90
2023-05-24T04:36:14.752Z,99.90
2023-05-24T04:39:03.927Z,99.90
2023-05-24T04:41:53.054Z,99.90
2023-05-24T04:44:44.878Z,99.90
2023-05-24T04:47:32.226Z,99.90
2023-05-24T04:50:19.845Z,99.90
2023-05-24T04:53:07.722Z,99.90
2023-05-24T04:55:55.877Z,99.90
2023-05-24T04:58:43.232Z,99.90
2023-05-24T05:01:31.071Z,99.90
2023-05-24T05:04:18.788Z,99.90
2023-05-24T05:07:06.255Z,99.90
2023-05-24T05:09:53.596Z,99.90
2023-05-24T05:12:41.498Z,99.90
2023-05-24T05:15:29.792Z,99.90
2023-05-24T05:18:17.362Z,99.90
2023-05-24T05:21:04.961Z,99.90
2023-05-24T05:23:52.585Z,99.90
2023-05-24T05:26:39.913Z,99.90
2023-05-24T05:29:27.527Z,99.90
2023-05-24T05:32:15.026Z,99.90
2023-05-24T05:35:02.512Z,99.90
2023-05-24T05:37:50.111Z,99.90
2023-05-24T05:40:37.453Z,99.90
2023-05-24T05:43:25.386Z,99.90
2023-05-24T05:46:14.120Z,99.90
2023-05-24T05:49:01.246Z,99.90
2023-05-24T05:51:48.437Z,99.90
2023-05-24T05:54:36.084Z,99.90
2023-05-24T05:57:24.406Z,99.90
2023-05-24T06:00:12.677Z,99.90
2023-05-24T06:03:00.414Z,99.90
2023-05-24T06:05:48.118Z,99.90
2023-05-24T06:08:35.411Z,99.90
2023-05-24T06:11:23.640Z,99.90
2023-05-24T06:14:13.510Z,99.90
2023-05-24T06:17:00.786Z,99.90
2023-05-24T06:19:48.245Z,99.90
2023-05-24T06:22:36.669Z,99.90
2023-05-24T06:25:24.423Z,99.90
2023-05-24T06:28:12.069Z,99.90
2023-05-24T06:30:59.848Z,99.90
2023-05-24T06:34:02.248Z,99.90
2023-05-24T06:36:38.030Z,99.90
2023-05-24T06:39:25.496Z,99.90
2023-05-24T06:42:13.251Z,99.90
2023-05-24T06:45:00.917Z,99.90
2023-05-24T06:47:48.405Z,99.90
2023-05-24T06:50:36.782Z,99.90
2023-05-24T06:53:24.310Z,99.90
2023-05-24T06:56:11.912Z,99.90
2023-05-24T06:59:00.589Z,99.90
2023-05-24T07:01:50.061Z,99.90
2023-05-24T07:04:37.789Z,99.90
2023-05-24T07:07:25.624Z,99.90
2023-05-24T07:10:13.282Z,99.90
2023-05-24T07:13:01.712Z,99.90
2023-05-24T07:15:50.105Z,99.90
2023-05-24T07:18:37.485Z,99.90
2023-05-24T07:21:25.353Z,99.90
2023-05-24T07:24:14.086Z,99.90
2023-05-24T07:27:02.302Z,99.90
2023-05-24T07:29:50.235Z,99.90
2023-05-24T07:32:38.039Z,99.90
2023-05-24T07:35:25.639Z,99.90
2023-05-24T07:38:13.469Z,99.90
2023-05-24T07:41:01.995Z,99.90
2023-05-24T07:43:49.616Z,99.90
2023-05-24T07:46:37.972Z,99.90
2023-05-24T07:49:25.431Z,99.90
2023-05-24T07:52:13.295Z,99.90
2023-05-24T07:55:01.101Z,99.90
2023-05-24T07:57:48.568Z,99.90
2023-05-24T08:00:35.899Z,99.90
2023-05-24T08:03:25.029Z,99.90
2023-05-24T08:06:13.520Z,99.90
2023-05-24T08:09:01.691Z,99.90
2023-05-24T08:11:49.116Z,99.90
2023-05-24T08:14:36.709Z,99.90
2023-05-24T08:17:24.822Z,99.90
2023-05-24T08:20:16.935Z,99.90
2023-05-24T08:23:04.833Z,99.90
2023-05-24T08:25:53.591Z,99.90
2023-05-24T08:28:41.205Z,99.90
2023-05-24T08:31:28.540Z,99.90
2023-05-24T08:34:16.691Z,99.90
2023-05-24T08:37:04.803Z,99.90
2023-05-24T08:39:52.352Z,99.90
2023-05-24T08:42:41.048Z,99.90
2023-05-24T08:45:31.450Z,99.90
2023-05-24T08:48:20.626Z,99.90
2023-05-24T08:51:08.346Z,99.90
2023-05-24T08:53:56.382Z,99.90
2023-05-24T08:56:44.127Z,99.90
2023-05-24T08:59:31.580Z,99.90
2023-05-24T09:02:19.583Z,99.90
2023-05-24T09:05:09.168Z,99.90
2023-05-24T09:07:57.714Z,99.90
2023-05-24T09:10:54.626Z,99.90
2023-05-24T09:13:36.780Z,99.90
2023-05-24T09:16:24.522Z,99.90
2023-05-24T09:19:13.073Z,99.90
2023-05-24T09:22:01.038Z,99.90
2023-05-24T09:24:52.154Z,99.90
2023-05-24T09:27:39.748Z,99.90
2023-05-24T09:30:27.464Z,99.90
2023-05-24T09:33:15.158Z,99.90
2023-05-24T09:36:05.276Z,99.90
2023-05-24T09:39:08.881Z,99.90
2023-05-24T09:41:57.380Z,99.90
2023-05-24T09:44:47.191Z,99.60
2023-05-24T09:47:36.177Z,99.90
2023-05-24T09:50:23.885Z,99.90
2023-05-24T09:53:11.302Z,99.80
2023-05-24T09:55:58.747Z,99.80
2023-05-24T09:58:46.908Z,97.50
2023-05-24T10:01:35.891Z,98.00
2023-05-24T10:04:26.387Z,97.30
2023-05-24T10:07:14.505Z,97.60
2023-05-24T10:10:07.411Z,97.60
2023-05-24T10:12:54.932Z,96.00
2023-05-24T10:15:45.410Z,94.70
2023-05-24T10:18:32.811Z,96.40
2023-05-24T10:21:22.869Z,93.10
2023-05-24T10:24:12.262Z,93.00
2023-05-24T10:27:02.235Z,90.90
2023-05-24T10:29:55.852Z,93.40
2023-05-24T10:32:46.293Z,89.50
2023-05-24T10:35:36.385Z,92.20
2023-05-24T10:38:25.002Z,93.00
2023-05-24T10:41:13.555Z,89.00
2023-05-24T10:44:09.938Z,91.60
2023-05-24T10:47:10.323Z,90.20
2023-05-24T10:49:59.967Z,84.40
2023-05-24T10:52:49.072Z,85.20
2023-05-24T10:55:36.551Z,85.30
2023-05-24T10:58:48.352Z,84.70
2023-05-24T11:01:36.976Z,82.30
2023-05-24T11:04:24.596Z,80.40
2023-05-24T11:07:14.657Z,81.00
2023-05-24T11:10:06.459Z,79.80
2023-05-24T11:12:59.914Z,78.70
2023-05-24T11:15:53.543Z,79.70
2023-05-24T11:18:40.888Z,80.50
2023-05-24T11:21:29.319Z,80.60
2023-05-24T11:24:22.123Z,78.40
2023-05-24T11:27:13.522Z,79.90
2023-05-24T11:30:02.108Z,78.70
2023-05-24T11:32:50.298Z,80.00
2023-05-24T11:35:38.247Z,76.50
2023-05-24T11:38:27.540Z,75.60
2023-05-24T11:41:15.034Z,76.40
2023-05-24T11:44:02.580Z,74.80
2023-05-24T11:46:50.503Z,68.50
2023-05-24T11:49:37.824Z,70.20
2023-05-24T11:52:25.843Z,72.00
2023-05-24T11:55:17.054Z,71.80
2023-05-24T11:58:07.272Z,72.70
2023-05-24T12:00:54.557Z,72.70
2023-05-24T12:03:42.835Z,72.50
2023-05-24T12:06:39.475Z,73.00
2023-05-24T12:09:28.512Z,72.10
2023-05-24T12:12:16.587Z,73.00
2023-05-24T12:15:05.711Z,75.20
2023-05-24T12:17:53.402Z,74.10
2023-05-24T12:20:41.162Z,72.10
2023-05-24T12:23:30.848Z,77.20
2023-05-24T12:26:22.643Z,72.50
2023-05-24T12:29:20.135Z,73.80
2023-05-24T12:32:09.651Z,71.70
2023-05-24T12:34:57.079Z,72.80
2023-05-24T12:37:45.642Z,71.90
2023-05-24T12:40:34.569Z,74.30
2023-05-24T12:43:23.370Z,74.90
2023-05-24T12:46:10.721Z,76.20
2023-05-24T12:48:59.680Z,77.80
2023-05-24T12:51:49.394Z,76.30
2023-05-24T12:54:36.429Z,75.30
2023-05-24T12:57:24.132Z,79.40
2023-05-24T13:00:13.359Z,81.40
2023-05-24T13:03:00.933Z,73.50
2023-05-24T13:05:48.358Z,76.40
2023-05-24T13:08:35.774Z,73.60
2023-05-24T13:11:25.340Z,73.10
2023-05-24T13:14:13.033Z,72.50
2023-05-24T13:17:00.117Z,72.90
2023-05-24T13:19:47.606Z,74.90
2023-05-24T13:22:35.965Z,73.20
2023-05-24T13:25:23.719Z,76.40
2023-05-24T13:28:11.310Z,74.80
2023-05-24T13:30:59.292Z,75.20
2023-05-24T13:33:46.903Z,73.40
2023-05-24T13:36:35.508Z,74.80
2023-05-24T13:39:23.701Z,73.60
2023-05-24T13:42:11.460Z,73.00
2023-05-24T13:44:59.403Z,75.40
2023-05-24T13:47:47.592Z,77.60
2023-05-24T13:50:35.879Z,74.60
2023-05-24T13:53:23.684Z,74.50
2023-05-24T13:56:10.948Z,76.30
2023-05-24T13:58:59.117Z,77.60
2023-05-24T14:01:46.457Z,76.80
2023-05-24T14:04:33.881Z,77.40
2023-05-24T14:07:21.494Z,77.50
2023-05-24T14:10:09.723Z,77.00
2023-05-24T14:13:16.036Z,75.80
2023-05-24T14:15:46.996Z,76.90
2023-05-24T14:18:38.492Z,76.00
2023-05-24T14:21:27.044Z,75.70
2023-05-24T14:24:15.706Z,73.50
2023-05-24T14:27:04.703Z,75.40
2023-05-24T14:29:52.351Z,76.40
2023-05-24T14:32:39.990Z,71.30
2023-05-24T14:35:27.418Z,71.30
2023-05-24T14:38:15.297Z,73.30
2023-05-24T14:41:02.886Z,72.50
2023-05-24T14:43:50.994Z,75.70
2023-05-24T14:46:38.559Z,73.70
2023-05-24T14:49:25.891Z,72.10
2023-05-24T14:52:13.214Z,72.00
2023-05-24T14:55:00.788Z,70.20
2023-05-24T14:57:49.088Z,69.20
2023-05-24T15:00:37.053Z,67.50
2023-05-24T15:03:24.555Z,67.60
2023-05-24T15:06:12.631Z,67.10
2023-05-24T15:09:00.612Z,66.40
2023-05-24T15:11:47.992Z,66.30
2023-05-24T15:14:35.339Z,68.20
2023-05-24T15:17:23.003Z,68.00
2023-05-24T15:20:10.669Z,69.90
2023-05-24T15:22:58.230Z,66.30
2023-05-24T15:25:46.510Z,66.10
2023-05-24T15:28:33.939Z,66.00
2023-05-24T15:31:21.500Z,65.30
2023-05-24T15:34:08.972Z,68.00
2023-05-24T15:36:56.596Z,66.60
2023-05-24T15:39:44.283Z,66.40
2023-05-24T15:42:32.201Z,62.70
2023-05-24T15:45:19.985Z,64.60
2023-05-24T15:48:07.824Z,64.50
2023-05-24T15:51:35.958Z,64.70
2023-05-24T15:53:44.074Z,65.20
2023-05-24T15:56:31.724Z,65.00
2023-05-24T15:59:20.861Z,65.00
2023-05-24T16:02:08.604Z,65.30
2023-05-24T16:04:57.253Z,66.30
2023-05-24T16:07:44.863Z,65.00
2023-05-24T16:10:32.250Z,65.40
2023-05-24T16:13:21.486Z,66.40
2023-05-24T16:16:08.874Z,65.60
2023-05-24T16:18:56.815Z,66.00
2023-05-24T16:21:44.145Z,63.90
2023-05-24T16:24:31.672Z,63.10
2023-05-24T16:27:19.258Z,63.70
2023-05-24T16:30:07.819Z,62.50
2023-05-24T16:32:55.567Z,61.60
2023-05-24T16:35:43.087Z,63.50
2023-05-24T16:38:30.355Z,61.90
2023-05-24T16:41:17.717Z,60.50
2023-05-24T16:44:05.853Z,61.40
2023-05-24T16:46:53.547Z,61.70
2023-05-24T16:49:40.995Z,62.60
2023-05-24T16:52:28.596Z,62.40
2023-05-24T16:55:16.576Z,62.50
2023-05-24T16:58:03.893Z,61.70
2023-05-24T17:00:53.118Z,63.80
2023-05-24T17:03:40.691Z,63.60
2023-05-24T17:06:28.247Z,62.70
2023-05-24T17:09:16.033Z,62.30
2023-05-24T17:12:03.749Z,63.30
2023-05-24T17:14:51.225Z,63.40
2023-05-24T17:17:39.286Z,64.10
2023-05-24T17:20:26.806Z,64.80
2023-05-24T17:23:14.156Z,63.90
2023-05-24T17:26:03.216Z,64.80
2023-05-24T17:28:50.814Z,66.30
2023-05-24T17:31:38.137Z,67.70
2023-05-24T17:34:25.832Z,68.20
2023-05-24T17:37:13.518Z,68.40
2023-05-24T17:40:01.181Z,69.10
2023-05-24T17:42:48.696Z,68.90
2023-05-24T17:45:36.115Z,68.60
2023-05-24T17:48:23.933Z,68.40
2023-05-24T17:51:11.778Z,67.20
2023-05-24T17:53:59.135Z,66.80
2023-05-24T17:56:46.793Z,65.40
2023-05-24T17:59:34.829Z,66.00
2023-05-24T18:02:22.440Z,66.20
2023-05-24T18:05:10.184Z,66.80
2023-05-24T18:07:57.802Z,66.90
2023-05-24T18:10:45.917Z,65.80
2023-05-24T18:13:33.510Z,65.90
2023-05-24T18:16:20.896Z,67.50
2023-05-24T18:19:08.452Z,69.40
2023-05-24T18:21:56.052Z,70.40
2023-05-24T18:24:43.365Z,71.50
2023-05-24T18:27:30.948Z,72.60
2023-05-24T18:30:18.488Z,73.60
2023-05-24T18:33:08.259Z,74.80
2023-05-24T18:35:54.858Z,75.40
2023-05-24T18:38:42.665Z,76.90
2023-05-24T18:41:30.226Z,78.20
2023-05-24T18:44:17.811Z,79.30
2023-05-24T18:47:05.761Z,80.40
2023-05-24T18:49:53.470Z,81.40
2023-05-24T18:52:40.798Z,82.20
2023-05-24T18:55:28.789Z,83.00
2023-05-24T18:58:16.382Z,83.70
2023-05-24T19:01:03.897Z,84.60
2023-05-24T19:03:51.197Z,85.70
2023-05-24T19:06:39.273Z,86.60
2023-05-24T19:09:26.607Z,87.90
2023-05-24T19:12:14.851Z,89.10
2023-05-24T19:15:02.864Z,90.10
2023-05-24T19:17:50.493Z,90.70
2023-05-24T19:20:38.004Z,90.90
2023-05-24T19:23:25.530Z,91.60
2023-05-24T19:26:13.213Z,91.90
2023-05-24T19:29:00.929Z,92.30
2023-05-24T19:31:50.368Z,92.60
2023-05-24T19:34:39.896Z,92.80
2023-05-24T19:37:27.076Z,93.30
2023-05-24T19:40:14.460Z,93.60
2023-05-24T19:43:01.466Z,94.10
2023-05-24T19:45:50.891Z,94.60
2023-05-24T19:48:38.149Z,95.10
2023-05-24T19:51:25.862Z,95.60
2023-05-24T19:54:13.749Z,96.30
2023-05-24T19:57:01.892Z,96.60
2023-05-24T19:59:49.503Z,97.40
2023-05-24T20:02:36.930Z,98.00
2023-05-24T20:05:24.958Z,98.60
2023-05-24T20:08:13.263Z,99.30
2023-05-24T20:11:00.749Z,99.80
2023-05-24T20:13:49.869Z,99.90
2023-05-24T20:16:37.477Z,99.90
2023-05-24T20:19:26.564Z,99.90
2023-05-24T20:22:15.342Z,99.90
2023-05-24T20:25:04.518Z,99.90
2023-05-24T20:27:51.858Z,99.90
2023-05-24T20:30:41.071Z,99.90
2023-05-24T20:33:28.401Z,99.90
2023-05-24T20:36:16.753Z,99.90
2023-05-24T20:39:04.496Z,99.90
2023-05-24T20:41:51.841Z,99.90
2023-05-24T20:44:39.432Z,99.90
2023-05-24T20:47:30.112Z,99.90
2023-05-24T20:50:16.573Z,99.90
2023-05-24T20:53:04.368Z,99.90
2023-05-24T20:55:52.051Z,99.90
2023-05-24T20:58:41.545Z,99.90
2023-05-24T21:01:29.129Z,99.90
2023-05-24T21:04:16.472Z,99.90
2023-05-24T21:07:03.960Z,99.90
2023-05-24T21:09:51.683Z,99.90
2023-05-24T21:12:39.069Z,99.90
2023-05-24T21:15:26.875Z,99.90
2023-05-24T21:18:14.425Z,99.90
2023-05-24T21:21:02.245Z,99.90
2023-05-24T21:23:49.665Z,99.90
2023-05-24T21:26:37.434Z,99.90
2023-05-24T21:29:24.990Z,99.90
2023-05-24T21:32:12.375Z,99.90
2023-05-24T21:34:59.705Z,99.90
2023-05-24T21:37:47.400Z,99.90
2023-05-24T21:40:34.963Z,99.90
2023-05-24T21:43:24.132Z,99.90
2023-05-24T21:46:11.560Z,99.90
2023-05-24T21:48:58.953Z,99.90
2023-05-24T21:51:46.544Z,99.90
2023-05-24T21:54:33.913Z,99.90
2023-05-24T21:57:21.576Z,99.90
2023-05-24T22:00:11.781Z,99.90
2023-05-24T22:02:59.313Z,99.90
2023-05-24T22:05:47.191Z,99.90
2023-05-24T22:08:35.394Z,99.90
2023-05-24T22:11:22.816Z,99.90
2023-05-24T22:14:10.798Z,99.90
2023-05-24T22:16:58.295Z,99.90
2023-05-24T22:19:46.047Z,99.90
2023-05-24T22:22:33.578Z,99.90
2023-05-24T22:25:21.624Z,99.90
2023-05-24T22:28:09.742Z,99.90
2023-05-24T22:30:57.440Z,99.90
2023-05-24T22:33:44.974Z,99.90
2023-05-24T22:36:33.728Z,99.90
2023-05-24T22:39:20.995Z,99.90
2023-05-24T22:42:08.748Z,99.90
2023-05-24T22:44:56.307Z,99.90
2023-05-24T22:47:43.942Z,99.90
2023-05-24T22:50:31.469Z,99.90
2023-05-24T22:53:18.916Z,99.90
2023-05-24T22:56:08.323Z,99.90
2023-05-24T22:58:56.719Z,99.90
2023-05-24T23:01:44.862Z,99.90
2023-05-24T23:04:33.649Z,99.90
2023-05-24T23:07:21.754Z,99.90
2023-05-24T23:10:09.472Z,99.90
2023-05-24T23:12:58.184Z,99.90
2023-05-24T23:15:46.806Z,99.90
2023-05-24T23:18:36.050Z,99.90
2023-05-24T23:21:24.762Z,99.90
2023-05-24T23:24:15.948Z,99.90
2023-05-24T23:27:03.648Z,99.90
2023-05-24T23:29:51.024Z,99.90
2023-05-24T23:32:38.479Z,99.90
2023-05-24T23:35:25.799Z,99.90
2023-05-24T23:38:14.148Z,99.90
2023-05-24T23:41:01.627Z,99.90
2023-05-24T23:43:49.005Z,99.90
2023-05-24T23:46:36.702Z,99.90
2023-05-24T23:49:24.519Z,99.90
2023-05-24T23:52:12.385Z,99.90
2023-05-24T23:54:59.670Z,99.90
2023-05-24T23:57:47.889Z,99.90
